Search for airport 
image banner adimage banner adimage banner ad
image banner ad

81CA - Skydive San Joaquin Valley

Located in Bakersfield, United States

ICAO - 81CA, IATA -

Data provided by Airmate  

General information

Coordinates: N35°5'52" W119°4'16"
Elevation is 346 feet MSL.
 
View others Airports in California

Operational data

Special qualification required
Current time UTC:
Current local time:
Weather at : KBFL - Meadows Field ( 37 km )
METAR: KBFL 211254Z 35007KT 8SM CLR 25/M02 A2984 RMK AO2 SLP095 T02501022
TAF: KBFL 211120Z 2112/2212 35005KT P6SM SKC
View NOTAMs / SUP AIP / TFR affecting this airport [VIEW]
Communications frequencies: [VIEW]

Runways:

RWY identifierQFULength (ft)Width (ft)SurfaceLDA (ft)
08284060OTHER
26284060OTHER

Airport contact information

Address: Bakersfield United States

Satellite view of 81CA